ePrivacy and GPDR Cookie Consent by Cookie Consent
EmailTwitter


Observations de surface / France / LFBP (07610)

Régions: Québec | Canada | États-Unis | Europe | France | UK | Ailleurs
Station
Affichage
Infos & localisation pour LFBP (07610) | Aide pour décoder les METARs

Observations prises le 2023-02-09 à 05H00 UTC à PONT-LONG-UZEIN/, FR (LFBP)

Température: -2.0 Celsius

Point de rosée: -2.0 Celsius

Humidité relative: 100%

Facteur vent -4.

Vents: Est-sud-est à 6 km/h ou 3 noeuds.

Pression au niveau moyen de la mer: 103.00 kilopascals.

Observation METAR:

LFBP 090500Z AUTO 11003KT CAVOK M02/M02 Q1030 TEMPO 0500 FG=